Time;durP1;ratioP1;P1;durP2;ratioP2;P2;SDS_P1;SDS_P2;PMS_P1;PMS_P2;Temp;Humidity;BMP_temperature;BMP_pressure;BME280_temperature;BME280_humidity;BME280_pressure;Samples;Min_cycle;Max_cycle;Signal;HPM_P1;HPM_P2
2020/12/05 00:00:40;;;;;;;;;;;;;;;;;;2071925;28;7009;-58
2020/12/05 00:01:42;;;;;;;;;;;;;;;;;;2068698;28;7010;-61
2020/12/05 00:02:52;;;;;;;;;;;;;;;;;;2071727;28;8027;-60
2020/12/05 00:03:54;;;;;;;;;;;;;;;;;;2071937;28;7113;-60
2020/12/05 00:04:56;;;;;;;;;;;;;;;;;;2072105;28;7097;-59
2020/12/05 00:05:58;;;;;;;;;;;;;;;;;;2071521;28;7092;-61
2020/12/05 00:07:03;;;;;;;;;;;;;;;;;;2071710;28;7084;-58
2020/12/05 00:08:05;;;;;;;;;;;;;;;;;;2071947;28;7009;-62
2020/12/05 00:09:07;;;;;;;;;;;;;;;;;;2072008;28;7092;-56
2020/12/05 00:10:09;;;;;;;;;;;;;;;;;;2071714;28;7051;-59
2020/12/05 00:11:11;;;;;;;;;;;;;;;;;;2071573;28;7017;-60
2020/12/05 00:12:13;;;;;;;;;;;;;;;;;;2071601;28;7398;-61
2020/12/05 00:13:28;;;;;;;;;;;;;;;;;;2072164;28;7013;-61
2020/12/05 00:14:31;;;;;;;;;;;;;;;;;;2071927;28;7037;-58
2020/12/05 00:15:34;;;;;;;;;;;;;;;;;;2071850;28;7044;-59
2020/12/05 00:16:36;;;;;;;;;;;;;;;;;;2071861;28;7017;-59
2020/12/05 00:17:38;;;;;;;;;;;;;;;;;;2071796;28;7113;-62
2020/12/05 00:18:54;;;;;;;;;;;;;;;;;;2071745;28;7149;-59
2020/12/05 00:20:00;;;;;;;;;;;;;;;;;;2072140;28;7125;-61
2020/12/05 00:21:02;;;;;;;;;;;;;;;;;;2072164;28;7104;-59
2020/12/05 00:22:04;;;;;;;;;;;;;;;;;;2071411;28;7129;-59
2020/12/05 00:23:06;;;;;;;;;;;;;;;;;;2071734;28;7192;-60
2020/12/05 00:24:08;;;;;;;;;;;;;;;;;;2071585;28;7009;-59
2020/12/05 00:25:10;;;;;;;;;;;;;;;;;;2071512;28;7046;-58
2020/12/05 00:26:19;;;;;;;;;;;;;;;;;;2071918;28;7093;-59
2020/12/05 00:27:21;;;;;;;;;;;;;;;;;;2071812;28;7089;-58
2020/12/05 00:28:23;;;;;;;;;;;;;;;;;;2071799;28;7089;-59
2020/12/05 00:29:25;;;;;;;;;;;;;;;;;;2071045;28;7088;-61
2020/12/05 00:30:28;;;;;;;;;;;;;;;;;;2070974;28;7013;-58
2020/12/05 00:31:31;;;;;;;;;;;;;;;;;;2071671;28;7116;-61
2020/12/05 00:32:35;;;;;;;;;;;;;;;;;;2070272;28;7113;-60
2020/12/05 00:33:37;;;;;;;;;;;;;;;;;;2070907;28;7108;-58
2020/12/05 00:34:39;;;;;;;;;;;;;;;;;;2071805;28;7096;-60
2020/12/05 00:35:41;;;;;;;;;;;;;;;;;;2071549;28;7009;-60
2020/12/05 00:36:46;;;;;;;;;;;;;;;;;;2071344;28;7018;-59
2020/12/05 00:37:48;;;;;;;;;;;;;;;;;;2072209;28;7047;-59
2020/12/05 00:38:51;;;;;;;;;;;;;;;;;;2071901;28;7057;-60
2020/12/05 00:39:53;;;;;;;;;;;;;;;;;;2071705;28;7142;-60
2020/12/05 00:40:56;;;;;;;;;;;;;;;;;;2071441;28;7088;-62
2020/12/05 00:41:57;;;;;;;;;;;;;;;;;;2071471;28;7046;-62
2020/12/05 00:43:00;;;;;;;;;;;;;;;;;;2071273;28;7284;-65
2020/12/05 00:44:02;;;;;;;;;;;;;;;;;;2072151;28;7029;-57
2020/12/05 00:45:04;;;;;;;;;;;;;;;;;;2071663;28;7109;-59
2020/12/05 00:46:06;;;;;;;;;;;;;;;;;;2070378;28;7054;-62
2020/12/05 00:47:08;;;;;;;;;;;;;;;;;;2070765;28;7013;-58
2020/12/05 00:48:10;;;;;;;;;;;;;;;;;;2071754;28;7038;-60
2020/12/05 00:49:12;;;;;;;;;;;;;;;;;;2071641;28;8226;-58
2020/12/05 00:50:17;;;;;;;;;;;;;;;;;;2071406;28;7096;-58
2020/12/05 00:51:19;;;;;;;;;;;;;;;;;;2069273;28;7021;-60
2020/12/05 00:52:22;;;;;;;;;;;;;;;;;;2071318;28;7186;-62
2020/12/05 00:53:26;;;;;;;;;;;;;;;;;;2071978;28;7010;-61
2020/12/05 00:54:31;;;;;;;;;;;;;;;;;;2072256;28;7117;-61
2020/12/05 00:55:34;;;;;;;;;;;;;;;;;;2071185;28;7037;-61
2020/12/05 00:56:36;;;;;;;;;;;;;;;;;;2071762;28;7010;-58
2020/12/05 00:57:38;;;;;;;;;;;;;;;;;;2071226;28;7140;-60
2020/12/05 00:58:40;;;;;;;;;;;;;;;;;;2071607;28;7017;-64
2020/12/05 00:59:42;;;;;;;;;;;;;;;;;;2070902;28;7130;-59
2020/12/05 01:00:44;;;;;;;;;;;;;;;;;;2071568;28;7017;-57
2020/12/05 01:01:51;;;;;;;;;;;;;;;;;;2071518;28;8023;-60
2020/12/05 01:02:53;;;;;;;;;;;;;;;;;;2071897;28;7124;-59
2020/12/05 01:03:58;;;;;;;;;;;;;;;;;;2071143;28;7085;-58
2020/12/05 01:05:00;;;;;;;;;;;;;;;;;;2071208;28;7009;-57
2020/12/05 01:06:05;;;;;;;;;;;;;;;;;;2071429;28;7009;-60
2020/12/05 01:07:06;;;;;;;;;;;;;;;;;;2071413;28;7089;-61
2020/12/05 01:08:09;;;;;;;;;;;;;;;;;;2071282;28;7116;-59
2020/12/05 01:09:10;;;;;;;;;;;;;;;;;;2071443;28;7152;-59
2020/12/05 01:10:19;;;;;;;;;;;;;;;;;;2070772;28;7096;-61
2020/12/05 01:11:22;;;;;;;;;;;;;;;;;;2071706;28;7014;-58
2020/12/05 01:12:24;;;;;;;;;;;;;;;;;;2069644;28;7088;-59
2020/12/05 01:13:32;;;;;;;;;;;;;;;;;;2072030;28;7149;-59
2020/12/05 01:14:34;;;;;;;;;;;;;;;;;;2071720;28;8887;-57
2020/12/05 01:15:36;;;;;;;;;;;;;;;;;;2071297;28;8037;-60
2020/12/05 01:16:38;;;;;;;;;;;;;;;;;;2070991;28;7096;-59
2020/12/05 01:17:40;;;;;;;;;;;;;;;;;;2071539;28;7037;-59
2020/12/05 01:18:42;;;;;;;;;;;;;;;;;;2071165;28;7046;-60
2020/12/05 01:19:44;;;;;;;;;;;;;;;;;;2070950;28;7049;-59
2020/12/05 01:20:46;;;;;;;;;;;;;;;;;;2071131;28;7088;-63
2020/12/05 01:21:48;;;;;;;;;;;;;;;;;;2071506;28;7138;-62
2020/12/05 01:22:50;;;;;;;;;;;;;;;;;;2070573;28;7317;-58
2020/12/05 01:23:52;;;;;;;;;;;;;;;;;;2071821;28;7046;-58
2020/12/05 01:24:54;;;;;;;;;;;;;;;;;;2071337;28;7046;-58
2020/12/05 01:25:56;;;;;;;;;;;;;;;;;;2071665;28;7100;-58
2020/12/05 01:27:01;;;;;;;;;;;;;;;;;;2068801;28;7026;-58
2020/12/05 01:28:03;;;;;;;;;;;;;;;;;;2071559;28;7111;-59
2020/12/05 01:29:05;;;;;;;;;;;;;;;;;;2071701;28;7328;-61
2020/12/05 01:30:07;;;;;;;;;;;;;;;;;;2071393;28;7009;-61
2020/12/05 01:31:10;;;;;;;;;;;;;;;;;;2071618;28;7096;-58
2020/12/05 01:32:13;;;;;;;;;;;;;;;;;;2071430;28;7093;-59
2020/12/05 01:33:14;;;;;;;;;;;;;;;;;;2071286;28;7105;-59
2020/12/05 01:34:16;;;;;;;;;;;;;;;;;;2067247;28;7029;-58
2020/12/05 01:35:18;;;;;;;;;;;;;;;;;;2070764;28;8043;-59
2020/12/05 01:36:20;;;;;;;;;;;;;;;;;;2070887;28;7092;-61
2020/12/05 01:37:22;;;;;;;;;;;;;;;;;;2070997;28;7013;-59
2020/12/05 01:38:24;;;;;;;;;;;;;;;;;;2070878;28;7021;-61
2020/12/05 01:39:26;;;;;;;;;;;;;;;;;;2071182;28;7045;-61
2020/12/05 01:40:28;;;;;;;;;;;;;;;;;;2070944;28;7092;-61
2020/12/05 01:41:30;;;;;;;;;;;;;;;;;;2071108;28;7092;-59
2020/12/05 01:42:33;;;;;;;;;;;;;;;;;;2071664;28;7013;-57
2020/12/05 01:43:35;;;;;;;;;;;;;;;;;;2071181;28;7088;-60
2020/12/05 01:44:37;;;;;;;;;;;;;;;;;;2070501;28;7009;-58
2020/12/05 01:45:39;;;;;;;;;;;;;;;;;;2071370;28;8046;-58
2020/12/05 01:46:42;;;;;;;;;;;;;;;;;;2071645;28;7009;-58
2020/12/05 01:47:44;;;;;;;;;;;;;;;;;;2069076;28;7045;-57
2020/12/05 01:48:46;;;;;;;;;;;;;;;;;;2072009;28;7037;-58
2020/12/05 01:49:48;;;;;;;;;;;;;;;;;;2070812;28;7139;-60
2020/12/05 01:50:52;;;;;;;;;;;;;;;;;;2071478;28;7108;-60
2020/12/05 01:51:55;;;;;;;;;;;;;;;;;;2070730;28;7050;-58
2020/12/05 01:52:57;;;;;;;;;;;;;;;;;;2071404;28;7017;-60
2020/12/05 01:53:59;;;;;;;;;;;;;;;;;;2071102;28;7017;-59
2020/12/05 01:55:03;;;;;;;;;;;;;;;;;;2071251;28;7058;-59
2020/12/05 01:56:05;;;;;;;;;;;;;;;;;;2075949;28;7050;-62
2020/12/05 01:57:11;;;;;;;;;;;;;;;;;;2079051;28;7386;-61
2020/12/05 01:58:14;;;;;;;;;;;;;;;;;;2079363;28;7013;-61
2020/12/05 01:59:16;;;;;;;;;;;;;;;;;;2087096;28;8009;-57
2020/12/05 02:00:18;;;;;;;;;;;;;;;;;;2086579;28;7021;-59
2020/12/05 02:01:24;;;;;;;;;;;;;;;;;;2079198;28;7312;-59
2020/12/05 02:02:26;;;;;;;;;;;;;;;;;;2078982;28;7046;-60
2020/12/05 02:03:29;;;;;;;;;;;;;;;;;;2079083;28;7300;-59
2020/12/05 02:04:44;;;;;;;;;;;;;;;;;;2079104;28;7021;-60
2020/12/05 02:05:48;;;;;;;;;;;;;;;;;;2079345;28;7088;-59
2020/12/05 02:07:04;;;;;;;;;;;;;;;;;;2070028;28;7038;-56
2020/12/05 02:08:13;;;;;;;;;;;;;;;;;;2071498;28;7300;-61
2020/12/05 02:09:29;;;;;;;;;;;;;;;;;;2071413;28;7049;-59
2020/12/05 02:10:40;;;;;;;;;;;;;;;;;;2072048;28;7009;-59
2020/12/05 02:11:51;;;;;;;;;;;;;;;;;;2071412;28;7013;-60
2020/12/05 02:13:25;;;;;;;;;;;;;;;;;;2071434;28;7009;-62
2020/12/05 02:14:31;;;;;;;;;;;;;;;;;;2070022;28;7017;-58
2020/12/05 02:15:37;;;;;;;;;;;;;;;;;;2068971;28;7050;-62
2020/12/05 02:16:40;;;;;;;;;;;;;;;;;;2071310;28;7042;-57
2020/12/05 02:17:52;;;;;;;;;;;;;;;;;;2070888;28;8019;-59
2020/12/05 02:19:00;;;;;;;;;;;;;;;;;;2070796;28;7010;-60
2020/12/05 02:20:03;;;;;;;;;;;;;;;;;;2071360;28;7037;-58
2020/12/05 02:21:10;;;;;;;;;;;;;;;;;;2071196;28;7351;-59
2020/12/05 02:22:15;;;;;;;;;;;;;;;;;;2071068;28;7081;-58
2020/12/05 02:23:18;;;;;;;;;;;;;;;;;;2071246;28;7009;-58
2020/12/05 02:24:21;;;;;;;;;;;;;;;;;;2071193;28;7111;-62
2020/12/05 02:25:23;;;;;;;;;;;;;;;;;;2070813;28;7088;-58
2020/12/05 02:26:31;;;;;;;;;;;;;;;;;;2071405;28;7316;-59
2020/12/05 02:27:42;;;;;;;;;;;;;;;;;;2070926;28;7010;-60
2020/12/05 02:28:44;;;;;;;;;;;;;;;;;;2070901;28;8091;-61
2020/12/05 02:29:46;;;;;;;;;;;;;;;;;;2070883;28;7092;-58
2020/12/05 02:30:49;;;;;;;;;;;;;;;;;;2070854;28;7038;-60
2020/12/05 02:31:52;;;;;;;;;;;;;;;;;;2071193;28;7092;-62
2020/12/05 02:32:54;;;;;;;;;;;;;;;;;;2071060;28;7041;-61
2020/12/05 02:33:56;;;;;;;;;;;;;;;;;;2071649;28;7045;-60
2020/12/05 02:35:06;;;;;;;;;;;;;;;;;;2071886;28;8048;-59
2020/12/05 02:36:10;;;;;;;;;;;;;;;;;;2073213;28;8044;-60
2020/12/05 02:37:23;;;;;;;;;;;;;;;;;;2080066;28;7009;-61
2020/12/05 02:38:28;;;;;;;;;;;;;;;;;;2080586;28;7025;-58
2020/12/05 02:39:31;;;;;;;;;;;;;;;;;;2080829;28;7668;-58
2020/12/05 02:40:33;;;;;;;;;;;;;;;;;;2080672;28;7144;-59
2020/12/05 02:41:36;;;;;;;;;;;;;;;;;;2080924;28;7049;-60
2020/12/05 02:42:38;;;;;;;;;;;;;;;;;;2079799;28;7013;-59
2020/12/05 02:43:40;;;;;;;;;;;;;;;;;;2080318;28;7100;-58
2020/12/05 02:44:45;;;;;;;;;;;;;;;;;;2080671;28;7092;-60
2020/12/05 02:45:47;;;;;;;;;;;;;;;;;;2080319;28;8218;-58
2020/12/05 02:46:49;;;;;;;;;;;;;;;;;;2080094;28;7194;-59
2020/12/05 02:47:51;;;;;;;;;;;;;;;;;;2080337;28;7057;-59
2020/12/05 02:48:53;;;;;;;;;;;;;;;;;;2080159;28;7017;-61
2020/12/05 02:49:55;;;;;;;;;;;;;;;;;;2079850;28;8127;-60
2020/12/05 02:50:57;;;;;;;;;;;;;;;;;;2080364;28;7100;-62
2020/12/05 02:51:59;;;;;;;;;;;;;;;;;;2080207;28;7017;-61
2020/12/05 02:53:01;;;;;;;;;;;;;;;;;;2080480;28;7161;-61
2020/12/05 02:54:03;;;;;;;;;;;;;;;;;;2080718;28;7150;-61
2020/12/05 02:55:05;;;;;;;;;;;;;;;;;;2081408;28;7013;-61
2020/12/05 02:56:07;;;;;;;;;;;;;;;;;;2080600;28;7017;-60
2020/12/05 02:57:12;;;;;;;;;;;;;;;;;;2071406;28;7096;-61
2020/12/05 02:58:14;;;;;;;;;;;;;;;;;;2072612;28;7013;-61
2020/12/05 02:59:16;;;;;;;;;;;;;;;;;;2072591;28;7013;-59
2020/12/05 03:00:18;;;;;;;;;;;;;;;;;;2072948;28;7013;-57
2020/12/05 03:01:20;;;;;;;;;;;;;;;;;;2072510;28;7013;-57
2020/12/05 03:02:22;;;;;;;;;;;;;;;;;;2080260;28;7124;-61
2020/12/05 03:03:24;;;;;;;;;;;;;;;;;;2079643;28;7602;-60
2020/12/05 03:04:26;;;;;;;;;;;;;;;;;;2079152;28;7860;-61
2020/12/05 03:05:29;;;;;;;;;;;;;;;;;;2080321;28;8477;-61
2020/12/05 03:06:31;;;;;;;;;;;;;;;;;;2080485;28;7046;-59
2020/12/05 03:07:33;;;;;;;;;;;;;;;;;;2080051;28;7035;-58
2020/12/05 03:08:35;;;;;;;;;;;;;;;;;;2080385;28;7092;-60
2020/12/05 03:09:41;;;;;;;;;;;;;;;;;;2080710;28;7013;-60
2020/12/05 03:10:43;;;;;;;;;;;;;;;;;;2073023;28;7010;-59
2020/12/05 03:11:44;;;;;;;;;;;;;;;;;;2080275;28;7013;-61
2020/12/05 03:12:46;;;;;;;;;;;;;;;;;;2080392;28;7097;-61
2020/12/05 03:13:48;;;;;;;;;;;;;;;;;;2080217;28;8064;-57
2020/12/05 03:14:50;;;;;;;;;;;;;;;;;;2079942;28;7328;-60
2020/12/05 03:15:52;;;;;;;;;;;;;;;;;;2080095;28;7009;-64
2020/12/05 03:16:54;;;;;;;;;;;;;;;;;;2080572;28;7096;-60
2020/12/05 03:17:59;;;;;;;;;;;;;;;;;;2079222;28;7029;-64
2020/12/05 03:19:02;;;;;;;;;;;;;;;;;;2080376;28;7138;-60
2020/12/05 03:20:04;;;;;;;;;;;;;;;;;;2080061;28;7096;-62
2020/12/05 03:21:06;;;;;;;;;;;;;;;;;;2080140;28;7009;-60
2020/12/05 03:22:08;;;;;;;;;;;;;;;;;;2079973;28;8051;-60
2020/12/05 03:23:10;;;;;;;;;;;;;;;;;;2080390;28;7092;-60
2020/12/05 03:24:12;;;;;;;;;;;;;;;;;;2080539;28;7092;-59
2020/12/05 03:25:14;;;;;;;;;;;;;;;;;;2080753;28;7017;-60
2020/12/05 03:26:16;;;;;;;;;;;;;;;;;;2080450;28;7096;-60
2020/12/05 03:27:18;;;;;;;;;;;;;;;;;;2080808;28;7013;-59
2020/12/05 03:28:20;;;;;;;;;;;;;;;;;;2079915;28;7054;-62
2020/12/05 03:29:22;;;;;;;;;;;;;;;;;;2080153;28;7013;-61
2020/12/05 03:30:24;;;;;;;;;;;;;;;;;;2080251;28;7045;-58
2020/12/05 03:31:44;;;;;;;;;;;;;;;;;;2080045;28;7092;-61
2020/12/05 03:32:47;;;;;;;;;;;;;;;;;;2080111;28;7029;-58
2020/12/05 03:33:49;;;;;;;;;;;;;;;;;;2080198;28;7096;-59
2020/12/05 03:34:51;;;;;;;;;;;;;;;;;;2079948;28;8019;-59
2020/12/05 03:35:53;;;;;;;;;;;;;;;;;;2079962;28;7050;-61
2020/12/05 03:36:55;;;;;;;;;;;;;;;;;;2075184;28;7009;-61
2020/12/05 03:37:57;;;;;;;;;;;;;;;;;;2071505;28;7102;-59
2020/12/05 03:38:59;;;;;;;;;;;;;;;;;;2080289;28;7025;-57
2020/12/05 03:40:01;;;;;;;;;;;;;;;;;;2071168;28;7293;-61
2020/12/05 03:41:03;;;;;;;;;;;;;;;;;;2072173;28;7188;-62
2020/12/05 03:42:05;;;;;;;;;;;;;;;;;;2072417;28;7013;-58
2020/12/05 03:43:07;;;;;;;;;;;;;;;;;;2072707;28;7045;-59
2020/12/05 03:44:09;;;;;;;;;;;;;;;;;;2072332;28;7009;-60
2020/12/05 03:45:11;;;;;;;;;;;;;;;;;;2071591;28;8752;-62
2020/12/05 03:46:13;;;;;;;;;;;;;;;;;;2072029;28;7105;-61
2020/12/05 03:47:15;;;;;;;;;;;;;;;;;;2071987;28;7327;-60
2020/12/05 03:48:17;;;;;;;;;;;;;;;;;;2072310;28;7116;-60
2020/12/05 03:49:18;;;;;;;;;;;;;;;;;;2072017;28;7065;-62
2020/12/05 03:50:20;;;;;;;;;;;;;;;;;;2072334;28;7109;-61
2020/12/05 03:51:22;;;;;;;;;;;;;;;;;;2071865;28;7108;-61
2020/12/05 03:52:24;;;;;;;;;;;;;;;;;;2072920;28;7028;-58
2020/12/05 03:53:27;;;;;;;;;;;;;;;;;;2070889;28;7117;-59
2020/12/05 03:54:29;;;;;;;;;;;;;;;;;;2072309;28;8232;-59
2020/12/05 03:55:32;;;;;;;;;;;;;;;;;;2072158;28;7025;-59
2020/12/05 03:56:34;;;;;;;;;;;;;;;;;;2072371;28;7013;-58
2020/12/05 03:57:36;;;;;;;;;;;;;;;;;;2071646;28;7139;-59
2020/12/05 03:58:39;;;;;;;;;;;;;;;;;;2070734;28;7017;-58
2020/12/05 03:59:41;;;;;;;;;;;;;;;;;;2072251;28;7144;-58
2020/12/05 04:00:42;;;;;;;;;;;;;;;;;;2071763;28;7013;-57
2020/12/05 04:01:44;;;;;;;;;;;;;;;;;;2071584;28;7033;-61
2020/12/05 04:02:46;;;;;;;;;;;;;;;;;;2071590;28;7101;-59
2020/12/05 04:03:48;;;;;;;;;;;;;;;;;;2071876;28;7009;-60
2020/12/05 04:04:50;;;;;;;;;;;;;;;;;;2071618;28;8023;-60
2020/12/05 04:05:52;;;;;;;;;;;;;;;;;;2071540;28;7006;-57
2020/12/05 04:06:55;;;;;;;;;;;;;;;;;;2071357;28;7046;-61
2020/12/05 04:07:57;;;;;;;;;;;;;;;;;;2071522;28;7009;-60
2020/12/05 04:09:00;;;;;;;;;;;;;;;;;;2071693;28;8055;-59
2020/12/05 04:10:02;;;;;;;;;;;;;;;;;;2071419;28;7569;-59
2020/12/05 04:11:04;;;;;;;;;;;;;;;;;;2072209;28;7096;-59
2020/12/05 04:12:06;;;;;;;;;;;;;;;;;;2071940;28;7042;-61
2020/12/05 04:13:08;;;;;;;;;;;;;;;;;;2071784;28;7325;-60
2020/12/05 04:14:11;;;;;;;;;;;;;;;;;;2071896;28;7109;-59
2020/12/05 04:15:13;;;;;;;;;;;;;;;;;;2071659;28;7054;-57
2020/12/05 04:16:15;;;;;;;;;;;;;;;;;;2071476;28;7045;-58
2020/12/05 04:17:17;;;;;;;;;;;;;;;;;;2071857;28;7009;-60
2020/12/05 04:18:18;;;;;;;;;;;;;;;;;;2071384;28;7010;-56
2020/12/05 04:19:20;;;;;;;;;;;;;;;;;;2072014;28;8062;-59
2020/12/05 04:20:22;;;;;;;;;;;;;;;;;;2071775;28;8492;-57
2020/12/05 04:21:24;;;;;;;;;;;;;;;;;;2071618;28;7117;-59
2020/12/05 04:22:26;;;;;;;;;;;;;;;;;;2071389;28;7092;-61
2020/12/05 04:23:29;;;;;;;;;;;;;;;;;;2071720;28;7089;-61
2020/12/05 04:24:31;;;;;;;;;;;;;;;;;;2071537;28;7009;-57
2020/12/05 04:25:34;;;;;;;;;;;;;;;;;;2072432;28;7013;-62
2020/12/05 04:26:38;;;;;;;;;;;;;;;;;;2071856;28;7120;-61
2020/12/05 04:27:40;;;;;;;;;;;;;;;;;;2071705;28;7046;-58
2020/12/05 04:28:42;;;;;;;;;;;;;;;;;;2071744;28;7096;-61
2020/12/05 04:29:44;;;;;;;;;;;;;;;;;;2071888;28;8099;-60
2020/12/05 04:30:45;;;;;;;;;;;;;;;;;;2071247;28;7025;-58
2020/12/05 04:31:48;;;;;;;;;;;;;;;;;;2071425;28;7992;-60
2020/12/05 04:32:50;;;;;;;;;;;;;;;;;;2071708;28;7360;-63
2020/12/05 04:33:51;;;;;;;;;;;;;;;;;;2071735;28;7092;-61
2020/12/05 04:34:53;;;;;;;;;;;;;;;;;;2071440;28;7088;-61
2020/12/05 04:35:55;;;;;;;;;;;;;;;;;;2071543;28;7134;-59
2020/12/05 04:36:57;;;;;;;;;;;;;;;;;;2071749;28;7037;-59
2020/12/05 04:37:59;;;;;;;;;;;;;;;;;;2072147;28;7137;-60
2020/12/05 04:39:01;;;;;;;;;;;;;;;;;;2071950;28;7316;-58
2020/12/05 04:40:04;;;;;;;;;;;;;;;;;;2072232;28;7014;-61
2020/12/05 04:41:06;;;;;;;;;;;;;;;;;;2069685;28;7080;-60
2020/12/05 04:42:08;;;;;;;;;;;;;;;;;;2069449;28;7088;-56
2020/12/05 04:43:10;;;;;;;;;;;;;;;;;;2071214;28;7021;-61
2020/12/05 04:44:13;;;;;;;;;;;;;;;;;;2071735;28;7046;-60
2020/12/05 04:45:16;;;;;;;;;;;;;;;;;;2071396;28;7009;-57
2020/12/05 04:46:19;;;;;;;;;;;;;;;;;;2071783;28;7092;-59
2020/12/05 04:47:21;;;;;;;;;;;;;;;;;;2071635;28;7377;-58
2020/12/05 04:48:24;;;;;;;;;;;;;;;;;;2071853;28;7017;-62
2020/12/05 04:49:28;;;;;;;;;;;;;;;;;;2071241;28;7093;-60
2020/12/05 04:50:30;;;;;;;;;;;;;;;;;;2071244;28;7014;-60
2020/12/05 04:51:37;;;;;;;;;;;;;;;;;;2071425;28;7052;-58
2020/12/05 04:52:39;;;;;;;;;;;;;;;;;;2071516;28;7029;-59
2020/12/05 04:53:44;;;;;;;;;;;;;;;;;;2071356;28;7109;-59
2020/12/05 04:54:51;;;;;;;;;;;;;;;;;;2071661;28;7092;-63
2020/12/05 04:55:57;;;;;;;;;;;;;;;;;;2070910;28;7100;-58
2020/12/05 04:56:59;;;;;;;;;;;;;;;;;;2071092;28;7111;-59
2020/12/05 04:58:03;;;;;;;;;;;;;;;;;;2071287;28;7088;-64
2020/12/05 04:59:07;;;;;;;;;;;;;;;;;;2069926;28;7010;-58
2020/12/05 05:00:10;;;;;;;;;;;;;;;;;;2071438;28;7034;-60
2020/12/05 05:01:15;;;;;;;;;;;;;;;;;;2071669;28;7305;-60
2020/12/05 05:02:18;;;;;;;;;;;;;;;;;;2071439;28;7009;-61
2020/12/05 05:03:22;;;;;;;;;;;;;;;;;;2071220;28;7092;-59
2020/12/05 05:04:26;;;;;;;;;;;;;;;;;;2070936;28;7089;-60
2020/12/05 05:05:28;;;;;;;;;;;;;;;;;;2071840;28;7013;-58
2020/12/05 05:06:31;;;;;;;;;;;;;;;;;;2071438;28;7009;-58
2020/12/05 05:07:35;;;;;;;;;;;;;;;;;;2069147;28;7038;-57
2020/12/05 05:08:37;;;;;;;;;;;;;;;;;;2071717;28;7009;-64
2020/12/05 05:09:46;;;;;;;;;;;;;;;;;;2070537;28;7005;-58
2020/12/05 05:10:48;;;;;;;;;;;;;;;;;;2071043;28;7017;-60
2020/12/05 05:11:56;;;;;;;;;;;;;;;;;;2071200;28;7009;-60
2020/12/05 05:13:03;;;;;;;;;;;;;;;;;;2071295;28;7093;-58
2020/12/05 05:14:14;;;;;;;;;;;;;;;;;;2070885;28;7358;-61
2020/12/05 05:15:21;;;;;;;;;;;;;;;;;;2071555;28;7014;-60
2020/12/05 05:16:29;;;;;;;;;;;;;;;;;;2071385;28;7033;-61
2020/12/05 05:17:31;;;;;;;;;;;;;;;;;;2071101;28;8051;-58
2020/12/05 05:18:33;;;;;;;;;;;;;;;;;;2071658;28;7013;-58
2020/12/05 05:19:36;;;;;;;;;;;;;;;;;;2071233;28;7977;-58
2020/12/05 05:20:38;;;;;;;;;;;;;;;;;;2070904;28;7009;-59
2020/12/05 05:21:41;;;;;;;;;;;;;;;;;;2069354;28;7013;-60
2020/12/05 05:22:42;;;;;;;;;;;;;;;;;;2071194;28;7058;-61
2020/12/05 05:23:44;;;;;;;;;;;;;;;;;;2071640;28;7725;-57
2020/12/05 05:24:59;;;;;;;;;;;;;;;;;;2071537;28;9103;-61
2020/12/05 05:26:03;;;;;;;;;;;;;;;;;;2071264;28;7040;-61
2020/12/05 05:27:08;;;;;;;;;;;;;;;;;;2071427;28;7025;-59
2020/12/05 05:28:10;;;;;;;;;;;;;;;;;;2071718;28;7046;-60
2020/12/05 05:29:45;;;;;;;;;;;;;;;;;;2071641;28;7092;-59
2020/12/05 05:30:59;;;;;;;;;;;;;;;;;;2061430;28;7046;-59
2020/12/05 05:32:11;;;;;;;;;;;;;;;;;;2070189;28;8127;-62
2020/12/05 05:33:13;;;;;;;;;;;;;;;;;;2071000;28;7093;-62
2020/12/05 05:34:18;;;;;;;;;;;;;;;;;;2071360;28;7009;-58
2020/12/05 05:35:20;;;;;;;;;;;;;;;;;;2071265;28;7009;-61
2020/12/05 05:36:24;;;;;;;;;;;;;;;;;;2071177;28;7054;-60
2020/12/05 05:37:26;;;;;;;;;;;;;;;;;;2071354;28;7009;-58
2020/12/05 05:38:28;;;;;;;;;;;;;;;;;;2071241;28;7005;-61
2020/12/05 05:39:42;;;;;;;;;;;;;;;;;;2071221;28;7089;-62
2020/12/05 05:40:43;;;;;;;;;;;;;;;;;;2071316;28;7021;-61
2020/12/05 05:41:47;;;;;;;;;;;;;;;;;;2070750;28;7006;-60
2020/12/05 05:42:49;;;;;;;;;;;;;;;;;;2070582;28;7093;-59
2020/12/05 05:43:58;;;;;;;;;;;;;;;;;;2070942;28;7102;-58
2020/12/05 05:45:18;;;;;;;;;;;;;;;;;;2070947;28;7005;-57
2020/12/05 05:46:25;;;;;;;;;;;;;;;;;;2071142;28;8027;-60
2020/12/05 05:47:29;;;;;;;;;;;;;;;;;;2071279;28;8153;-63
2020/12/05 05:48:30;;;;;;;;;;;;;;;;;;2071622;28;7092;-60
2020/12/05 05:49:33;;;;;;;;;;;;;;;;;;2069803;28;7013;-59
2020/12/05 05:50:40;;;;;;;;;;;;;;;;;;2070907;28;7092;-57
2020/12/05 05:51:47;;;;;;;;;;;;;;;;;;2071148;28;8054;-59
2020/12/05 05:52:53;;;;;;;;;;;;;;;;;;2071428;28;7092;-59
2020/12/05 05:54:08;;;;;;;;;;;;;;;;;;2069934;28;7131;-59
2020/12/05 05:55:10;;;;;;;;;;;;;;;;;;2071578;28;8039;-61
2020/12/05 05:56:12;;;;;;;;;;;;;;;;;;2077030;28;7013;-59
2020/12/05 05:57:14;;;;;;;;;;;;;;;;;;2079639;28;7096;-58
2020/12/05 05:58:18;;;;;;;;;;;;;;;;;;2079439;28;7274;-60
2020/12/05 05:59:21;;;;;;;;;;;;;;;;;;2079893;28;7013;-60
2020/12/05 06:00:26;;;;;;;;;;;;;;;;;;2071536;28;7101;-57
2020/12/05 06:01:32;;;;;;;;;;;;;;;;;;2072020;28;8122;-58
2020/12/05 06:02:39;;;;;;;;;;;;;;;;;;2070969;28;7006;-58
2020/12/05 06:03:48;;;;;;;;;;;;;;;;;;2071346;28;7101;-59
2020/12/05 06:04:50;;;;;;;;;;;;;;;;;;2071222;28;7084;-60
2020/12/05 06:05:54;;;;;;;;;;;;;;;;;;2071485;28;8031;-58
2020/12/05 06:06:57;;;;;;;;;;;;;;;;;;2071215;28;7013;-60
2020/12/05 06:08:01;;;;;;;;;;;;;;;;;;2071375;28;7092;-60
2020/12/05 06:09:03;;;;;;;;;;;;;;;;;;2070854;28;7085;-60
2020/12/05 06:10:08;;;;;;;;;;;;;;;;;;2071439;28;7050;-63
2020/12/05 06:11:11;;;;;;;;;;;;;;;;;;2072037;28;7009;-57
2020/12/05 06:12:26;;;;;;;;;;;;;;;;;;2079527;28;7009;-60
2020/12/05 06:13:30;;;;;;;;;;;;;;;;;;2070932;28;7148;-60
2020/12/05 06:14:34;;;;;;;;;;;;;;;;;;2070357;28;7292;-61
2020/12/05 06:15:36;;;;;;;;;;;;;;;;;;2071644;28;7021;-58
2020/12/05 06:16:40;;;;;;;;;;;;;;;;;;2071403;28;7017;-59
2020/12/05 06:17:42;;;;;;;;;;;;;;;;;;2070040;28;7022;-57
2020/12/05 06:18:46;;;;;;;;;;;;;;;;;;2071074;28;7033;-60
2020/12/05 06:19:49;;;;;;;;;;;;;;;;;;2071324;28;7152;-58
2020/12/05 06:20:51;;;;;;;;;;;;;;;;;;2071866;28;7972;-60
2020/12/05 06:21:55;;;;;;;;;;;;;;;;;;2071446;28;7017;-60
2020/12/05 06:23:02;;;;;;;;;;;;;;;;;;2071721;28;7125;-60
2020/12/05 06:24:08;;;;;;;;;;;;;;;;;;2071135;28;7049;-59
2020/12/05 06:25:10;;;;;;;;;;;;;;;;;;2071483;28;7135;-61
2020/12/05 06:26:17;;;;;;;;;;;;;;;;;;2071517;28;7096;-62
2020/12/05 06:27:20;;;;;;;;;;;;;;;;;;2071590;28;7009;-59
2020/12/05 06:28:23;;;;;;;;;;;;;;;;;;2072399;28;7180;-60
2020/12/05 06:29:26;;;;;;;;;;;;;;;;;;2071661;28;7009;-59
2020/12/05 06:30:28;;;;;;;;;;;;;;;;;;2071648;28;7140;-60
2020/12/05 06:31:44;;;;;;;;;;;;;;;;;;2071550;28;7045;-61
2020/12/05 06:32:48;;;;;;;;;;;;;;;;;;2072166;28;8017;-59
2020/12/05 06:33:50;;;;;;;;;;;;;;;;;;2071907;28;7009;-58
2020/12/05 06:34:52;;;;;;;;;;;;;;;;;;2071610;28;7084;-57
2020/12/05 06:35:53;;;;;;;;;;;;;;;;;;2070319;28;7013;-61
2020/12/05 06:36:55;;;;;;;;;;;;;;;;;;2076274;28;7014;-58
2020/12/05 06:37:58;;;;;;;;;;;;;;;;;;2078858;28;8094;-62
2020/12/05 06:39:06;;;;;;;;;;;;;;;;;;2078735;28;7029;-58
2020/12/05 06:40:08;;;;;;;;;;;;;;;;;;2079014;28;7017;-61
2020/12/05 06:41:10;;;;;;;;;;;;;;;;;;2079771;28;7013;-59
2020/12/05 06:42:19;;;;;;;;;;;;;;;;;;2079571;28;7070;-59
2020/12/05 06:43:21;;;;;;;;;;;;;;;;;;2079303;28;7052;-59
2020/12/05 06:44:25;;;;;;;;;;;;;;;;;;2078972;28;7359;-58
2020/12/05 06:45:27;;;;;;;;;;;;;;;;;;2078918;28;7421;-58
2020/12/05 06:46:44;;;;;;;;;;;;;;;;;;2078659;28;7384;-61
2020/12/05 06:47:46;;;;;;;;;;;;;;;;;;2079239;28;7100;-58
2020/12/05 06:48:48;;;;;;;;;;;;;;;;;;2078798;28;7113;-58
2020/12/05 06:49:51;;;;;;;;;;;;;;;;;;2078866;28;8726;-59
2020/12/05 06:50:53;;;;;;;;;;;;;;;;;;2070890;28;7009;-60
2020/12/05 06:51:55;;;;;;;;;;;;;;;;;;2071439;28;7009;-62
2020/12/05 06:52:57;;;;;;;;;;;;;;;;;;2071385;28;7010;-61
2020/12/05 06:53:59;;;;;;;;;;;;;;;;;;2071152;28;7131;-62
2020/12/05 06:55:01;;;;;;;;;;;;;;;;;;2071294;28;7163;-62
2020/12/05 06:56:15;;;;;;;;;;;;;;;;;;2070614;28;7093;-62
2020/12/05 06:57:19;;;;;;;;;;;;;;;;;;2070483;28;7062;-60
2020/12/05 06:58:24;;;;;;;;;;;;;;;;;;2077928;28;9351;-59
2020/12/05 06:59:26;;;;;;;;;;;;;;;;;;2077578;28;7013;-60
2020/12/05 07:00:31;;;;;;;;;;;;;;;;;;2070571;28;7096;-56
2020/12/05 07:01:33;;;;;;;;;;;;;;;;;;2070934;28;7013;-59
2020/12/05 07:02:35;;;;;;;;;;;;;;;;;;2070985;28;7045;-61
2020/12/05 07:03:37;;;;;;;;;;;;;;;;;;2071132;28;7109;-59
2020/12/05 07:04:39;;;;;;;;;;;;;;;;;;2070720;28;7014;-59
2020/12/05 07:05:42;;;;;;;;;;;;;;;;;;2070776;28;7084;-60
2020/12/05 07:06:46;;;;;;;;;;;;;;;;;;2070924;28;7038;-59
2020/12/05 07:07:53;;;;;;;;;;;;;;;;;;2071000;28;7013;-60
2020/12/05 07:08:55;;;;;;;;;;;;;;;;;;2070696;28;7042;-61
2020/12/05 07:09:57;;;;;;;;;;;;;;;;;;2071284;28;8073;-61
2020/12/05 07:11:00;;;;;;;;;;;;;;;;;;2070583;28;7092;-61
2020/12/05 07:12:17;;;;;;;;;;;;;;;;;;2070494;28;7010;-58
2020/12/05 07:13:22;;;;;;;;;;;;;;;;;;2070658;28;7025;-59
2020/12/05 07:14:25;;;;;;;;;;;;;;;;;;2070639;28;7010;-61
2020/12/05 07:15:28;;;;;;;;;;;;;;;;;;2070460;28;7009;-61
2020/12/05 07:16:38;;;;;;;;;;;;;;;;;;2071056;28;8101;-60
2020/12/05 07:17:40;;;;;;;;;;;;;;;;;;2071152;28;7065;-61
2020/12/05 07:18:45;;;;;;;;;;;;;;;;;;2071423;28;7025;-59
2020/12/05 07:19:50;;;;;;;;;;;;;;;;;;2071359;28;7118;-61
2020/12/05 07:20:53;;;;;;;;;;;;;;;;;;2071773;28;7014;-58
2020/12/05 07:21:56;;;;;;;;;;;;;;;;;;2072852;28;7100;-59
2020/12/05 07:22:59;;;;;;;;;;;;;;;;;;2072068;28;8043;-61